ePrivacy and GPDR Cookie Consent by Cookie Consent
EmailTwitter


Observations de surface / France / LFST (07190)

Régions: Québec | Canada | États-Unis | Europe | France | UK | Ailleurs
Station
Affichage
Infos & localisation pour LFST (07190) | Aide pour décoder les METARs

Observations prises le 2022-09-30 à 03H00 UTC à STRASBOURG/ENTZH, FR (LFST)

Etat du ciel: couvert.

Température: 9.0 Celsius

Point de rosée: 9.0 Celsius

Humidité relative: 100%

Vents: Nord-ouest à 6 km/h ou 3 noeuds.

Pression au niveau moyen de la mer: 100.90 kilopascals.

Visibilité horizontale: 6.21 milles terrestres ou 9.94 kilomètres.

Hauteur du plafond: 1585 mètres ( 5200 pieds ).

Observation METAR:

LFST 300300Z AUTO 33003KT 9999 BKN052 OVC084 09/09 Q1009 NOSIG=